Time;durP1;ratioP1;P1;durP2;ratioP2;P2;SDS_P1;SDS_P2;PMS_P1;PMS_P2;Temp;Humidity;BMP_temperature;BMP_pressure;BME280_temperature;BME280_humidity;BME280_pressure;Samples;Min_cycle;Max_cycle;Signal;HPM_P1;HPM_P2
2022/12/20 00:00:35;;;;;;;;;;;;;;;;;;6232506;22;19990;-91
2022/12/20 00:03:01;;;;;;;;;;;;;;;;;;6232446;22;19926;-91
2022/12/20 00:05:27;;;;;;;;;;;;;;;;;;6232712;22;19916;-90
2022/12/20 00:07:53;;;;;;;;;;;;;;;;;;6232657;22;20284;-90
2022/12/20 00:10:19;;;;;;;;;;;;;;;;;;6232241;22;19919;-90
2022/12/20 00:12:45;;;;;;;;;;;;;;;;;;6232557;22;19961;-90
2022/12/20 00:15:11;;;;;;;;;;;;;;;;;;6232382;22;19916;-91
2022/12/20 00:17:37;;;;;;;;;;;;;;;;;;6232450;22;19967;-91
2022/12/20 00:20:03;;;;;;;;;;;;;;;;;;6232224;22;19987;-90
2022/12/20 00:22:28;;;;;;;;;;;;;;;;;;6232380;22;19990;-90
2022/12/20 00:24:54;;;;;;;;;;;;;;;;;;6257657;22;19919;-90
2022/12/20 00:27:20;;;;;;;;;;;;;;;;;;6232250;22;20333;-90
2022/12/20 00:29:46;;;;;;;;;;;;;;;;;;6257249;22;19972;-91
2022/12/20 00:32:12;;;;;;;;;;;;;;;;;;6232304;22;20249;-90
2022/12/20 00:34:38;;;;;;;;;;;;;;;;;;6245940;23;19922;-90
2022/12/20 00:37:04;;;;;;;;;;;;;;;;;;6220412;23;19923;-90
2022/12/20 00:39:30;;;;;;;;;;;;;;;;;;6219984;23;19916;-90
2022/12/20 00:41:56;;;;;;;;;;;;;;;;;;6220340;23;20078;-90
2022/12/20 00:44:22;;;;;;;;;;;;;;;;;;6220385;23;19990;-90
2022/12/20 00:46:47;;;;;;;;;;;;;;;;;;6220528;23;19915;-90
2022/12/20 00:49:15;;;;;;;;;;;;;;;;;;6219924;23;20372;-90
2022/12/20 00:51:41;;;;;;;;;;;;;;;;;;6220719;23;20291;-90
2022/12/20 00:54:07;;;;;;;;;;;;;;;;;;6246033;23;19951;-91
2022/12/20 00:56:33;;;;;;;;;;;;;;;;;;6220201;23;20253;-90
2022/12/20 00:58:59;;;;;;;;;;;;;;;;;;6220084;23;19915;-90
2022/12/20 01:01:25;;;;;;;;;;;;;;;;;;6220150;23;19926;-90
2022/12/20 01:03:50;;;;;;;;;;;;;;;;;;6220069;23;19915;-90
2022/12/20 01:06:16;;;;;;;;;;;;;;;;;;6220133;23;19920;-90
2022/12/20 01:08:42;;;;;;;;;;;;;;;;;;6220136;23;19923;-90
2022/12/20 01:11:08;;;;;;;;;;;;;;;;;;6219712;23;19915;-90
2022/12/20 01:13:34;;;;;;;;;;;;;;;;;;6219939;23;20329;-90
2022/12/20 01:16:00;;;;;;;;;;;;;;;;;;6219879;23;19916;-91
2022/12/20 01:18:26;;;;;;;;;;;;;;;;;;6245181;23;19927;-90
2022/12/20 01:20:52;;;;;;;;;;;;;;;;;;6219730;23;20234;-90
2022/12/20 01:23:18;;;;;;;;;;;;;;;;;;6245095;23;19920;-90
2022/12/20 01:25:44;;;;;;;;;;;;;;;;;;6219852;23;19915;-90
2022/12/20 01:28:10;;;;;;;;;;;;;;;;;;6245338;23;19922;-90
2022/12/20 01:30:36;;;;;;;;;;;;;;;;;;6219513;23;20360;-90
2022/12/20 01:33:02;;;;;;;;;;;;;;;;;;6219808;23;19915;-90
2022/12/20 01:35:28;;;;;;;;;;;;;;;;;;6219752;23;19915;-90
2022/12/20 01:37:53;;;;;;;;;;;;;;;;;;6219775;23;20396;-89
2022/12/20 01:40:19;;;;;;;;;;;;;;;;;;6219468;23;19961;-90
2022/12/20 01:42:45;;;;;;;;;;;;;;;;;;6219714;23;19920;-90
2022/12/20 01:45:11;;;;;;;;;;;;;;;;;;6219156;23;19916;-90
2022/12/20 01:47:37;;;;;;;;;;;;;;;;;;6219806;23;19915;-91
2022/12/20 01:50:03;;;;;;;;;;;;;;;;;;6219372;23;19923;-90
2022/12/20 01:52:29;;;;;;;;;;;;;;;;;;6219549;23;19922;-90
2022/12/20 01:54:55;;;;;;;;;;;;;;;;;;6219432;23;19915;-90
2022/12/20 01:57:21;;;;;;;;;;;;;;;;;;6219650;23;19915;-90
2022/12/20 01:59:47;;;;;;;;;;;;;;;;;;6219209;23;19926;-90
2022/12/20 02:02:13;;;;;;;;;;;;;;;;;;6219149;23;19919;-89
2022/12/20 02:04:39;;;;;;;;;;;;;;;;;;6219152;23;20245;-89
2022/12/20 02:07:05;;;;;;;;;;;;;;;;;;6219370;23;19986;-90
2022/12/20 02:09:30;;;;;;;;;;;;;;;;;;6219148;23;19915;-90
2022/12/20 02:11:56;;;;;;;;;;;;;;;;;;6219578;23;19926;-89
2022/12/20 02:14:22;;;;;;;;;;;;;;;;;;6219344;23;19919;-90
2022/12/20 02:16:48;;;;;;;;;;;;;;;;;;6219620;23;20334;-90
2022/12/20 02:19:14;;;;;;;;;;;;;;;;;;6219241;23;19986;-90
2022/12/20 02:21:40;;;;;;;;;;;;;;;;;;6219086;23;19997;-91
2022/12/20 02:24:06;;;;;;;;;;;;;;;;;;6219220;23;19975;-90
2022/12/20 02:26:32;;;;;;;;;;;;;;;;;;6244907;23;19915;-90
2022/12/20 02:28:58;;;;;;;;;;;;;;;;;;6219362;23;20360;-91
2022/12/20 02:31:24;;;;;;;;;;;;;;;;;;6219543;23;19915;-91
2022/12/20 02:33:50;;;;;;;;;;;;;;;;;;6244896;23;20285;-91
2022/12/20 02:36:16;;;;;;;;;;;;;;;;;;6219967;23;20249;-90
2022/12/20 02:38:41;;;;;;;;;;;;;;;;;;6244806;23;19919;-90
2022/12/20 02:41:07;;;;;;;;;;;;;;;;;;6219092;23;20384;-90
2022/12/20 02:46:18;;;;;;;;;;;;;;;;;;6244573;23;19923;-91
2022/12/20 02:48:44;;;;;;;;;;;;;;;;;;6219138;23;19919;-89
2022/12/20 02:51:10;;;;;;;;;;;;;;;;;;6219390;23;20288;-91
2022/12/20 02:53:36;;;;;;;;;;;;;;;;;;6219401;23;19958;-92
2022/12/20 02:56:02;;;;;;;;;;;;;;;;;;6219006;23;19916;-90
2022/12/20 02:58:27;;;;;;;;;;;;;;;;;;6219355;23;20245;-91
2022/12/20 03:00:53;;;;;;;;;;;;;;;;;;6219032;23;19916;-89
2022/12/20 03:03:22;;;;;;;;;;;;;;;;;;6219134;23;19920;-91
2022/12/20 03:05:48;;;;;;;;;;;;;;;;;;6219665;23;20249;-90
2022/12/20 03:08:14;;;;;;;;;;;;;;;;;;6218960;23;19922;-90
2022/12/20 03:10:40;;;;;;;;;;;;;;;;;;6244233;23;19915;-91
2022/12/20 03:13:06;;;;;;;;;;;;;;;;;;6219040;23;19919;-90
2022/12/20 03:15:32;;;;;;;;;;;;;;;;;;6244749;23;20244;-90
2022/12/20 03:17:58;;;;;;;;;;;;;;;;;;6219205;23;19915;-91
2022/12/20 03:20:24;;;;;;;;;;;;;;;;;;6218991;23;19923;-91
2022/12/20 03:22:50;;;;;;;;;;;;;;;;;;6219302;23;19931;-92
2022/12/20 03:25:16;;;;;;;;;;;;;;;;;;6244648;23;19924;-91
2022/12/20 03:27:42;;;;;;;;;;;;;;;;;;6219057;23;19955;-90
2022/12/20 03:30:08;;;;;;;;;;;;;;;;;;6218949;23;19916;-90
2022/12/20 03:32:33;;;;;;;;;;;;;;;;;;6222301;22;19922;-91
2022/12/20 03:34:59;;;;;;;;;;;;;;;;;;6249355;22;19915;-90
2022/12/20 03:37:25;;;;;;;;;;;;;;;;;;6224033;22;19946;-90
2022/12/20 03:39:51;;;;;;;;;;;;;;;;;;6223778;22;20029;-90
2022/12/20 03:42:17;;;;;;;;;;;;;;;;;;6249298;22;20042;-90
2022/12/20 03:44:43;;;;;;;;;;;;;;;;;;6224133;22;19915;-91
2022/12/20 03:47:09;;;;;;;;;;;;;;;;;;6224074;22;19994;-91
2022/12/20 03:49:35;;;;;;;;;;;;;;;;;;6223827;22;20291;-91
2022/12/20 03:52:01;;;;;;;;;;;;;;;;;;6223731;22;19915;-90
2022/12/20 03:54:26;;;;;;;;;;;;;;;;;;6223929;22;19919;-90
2022/12/20 03:56:52;;;;;;;;;;;;;;;;;;6223897;22;19965;-90
2022/12/20 03:59:18;;;;;;;;;;;;;;;;;;6223697;22;20402;-90
2022/12/20 04:01:44;;;;;;;;;;;;;;;;;;6223962;22;19961;-90
2022/12/20 04:04:10;;;;;;;;;;;;;;;;;;6223720;22;19921;-90
2022/12/20 04:06:36;;;;;;;;;;;;;;;;;;6249183;22;20432;-91
2022/12/20 04:09:02;;;;;;;;;;;;;;;;;;6224445;22;19922;-90
2022/12/20 04:11:28;;;;;;;;;;;;;;;;;;6251312;22;19990;-90
2022/12/20 04:13:54;;;;;;;;;;;;;;;;;;6225791;22;20320;-90
2022/12/20 04:16:20;;;;;;;;;;;;;;;;;;6225627;22;19915;-90
2022/12/20 04:18:45;;;;;;;;;;;;;;;;;;6226180;22;19923;-90
2022/12/20 04:21:11;;;;;;;;;;;;;;;;;;6225350;22;19915;-91
2022/12/20 04:23:37;;;;;;;;;;;;;;;;;;6225593;22;19919;-90
2022/12/20 04:26:03;;;;;;;;;;;;;;;;;;6225802;22;19938;-90
2022/12/20 04:28:29;;;;;;;;;;;;;;;;;;6225613;22;20394;-91
2022/12/20 04:30:55;;;;;;;;;;;;;;;;;;6225441;22;19916;-90
2022/12/20 04:33:21;;;;;;;;;;;;;;;;;;6225465;22;19916;-90
2022/12/20 04:35:47;;;;;;;;;;;;;;;;;;6225465;22;19919;-90
2022/12/20 04:38:13;;;;;;;;;;;;;;;;;;6225547;22;19965;-90
2022/12/20 04:40:38;;;;;;;;;;;;;;;;;;6225214;22;19915;-89
2022/12/20 04:43:04;;;;;;;;;;;;;;;;;;6225291;22;20253;-90
2022/12/20 04:45:30;;;;;;;;;;;;;;;;;;6225409;22;19922;-90
2022/12/20 04:47:56;;;;;;;;;;;;;;;;;;6250953;22;19919;-90
2022/12/20 04:50:22;;;;;;;;;;;;;;;;;;6225154;22;19919;-90
2022/12/20 04:55:33;;;;;;;;;;;;;;;;;;6250800;22;20291;-90
2022/12/20 04:57:58;;;;;;;;;;;;;;;;;;6225238;22;19915;-90
2022/12/20 05:00:24;;;;;;;;;;;;;;;;;;6225111;22;19915;-90
2022/12/20 05:02:51;;;;;;;;;;;;;;;;;;6223781;22;20367;-90
2022/12/20 05:05:17;;;;;;;;;;;;;;;;;;6224879;22;19919;-91
2022/12/20 05:07:42;;;;;;;;;;;;;;;;;;6225007;22;19924;-90
2022/12/20 05:10:08;;;;;;;;;;;;;;;;;;6224803;22;19950;-90
2022/12/20 05:12:34;;;;;;;;;;;;;;;;;;6224698;22;19951;-90
2022/12/20 05:15:00;;;;;;;;;;;;;;;;;;6224863;22;20310;-89
2022/12/20 05:17:26;;;;;;;;;;;;;;;;;;6224989;22;19919;-90
2022/12/20 05:19:52;;;;;;;;;;;;;;;;;;6224412;22;19915;-89
2022/12/20 05:27:47;;;;;;;;;;;;;;;;;;6250480;22;19969;-91
2022/12/20 05:30:14;;;;;;;;;;;;;;;;;;6249989;22;19926;-90
2022/12/20 05:32:40;;;;;;;;;;;;;;;;;;6250063;22;20417;-90
2022/12/20 05:35:06;;;;;;;;;;;;;;;;;;6224474;22;19946;-90
2022/12/20 05:37:32;;;;;;;;;;;;;;;;;;6224786;22;19986;-90
2022/12/20 05:39:58;;;;;;;;;;;;;;;;;;6249632;22;19919;-90
2022/12/20 05:42:24;;;;;;;;;;;;;;;;;;6224337;22;19919;-90
2022/12/20 05:44:50;;;;;;;;;;;;;;;;;;6224770;22;20295;-90
2022/12/20 05:47:16;;;;;;;;;;;;;;;;;;6224727;22;19919;-89
2022/12/20 05:49:42;;;;;;;;;;;;;;;;;;6249905;22;20018;-90
2022/12/20 05:52:08;;;;;;;;;;;;;;;;;;6224741;22;19915;-90
2022/12/20 05:54:34;;;;;;;;;;;;;;;;;;6249990;22;20329;-90
2022/12/20 05:57:00;;;;;;;;;;;;;;;;;;6224635;22;19964;-90
2022/12/20 05:59:26;;;;;;;;;;;;;;;;;;6224246;22;19919;-91
2022/12/20 06:01:51;;;;;;;;;;;;;;;;;;6224450;22;19926;-90
2022/12/20 06:04:17;;;;;;;;;;;;;;;;;;6224293;22;19915;-89
2022/12/20 06:06:43;;;;;;;;;;;;;;;;;;6249900;22;20337;-90
2022/12/20 06:09:09;;;;;;;;;;;;;;;;;;6224176;22;19926;-90
2022/12/20 06:11:35;;;;;;;;;;;;;;;;;;6224523;22;19919;-90
2022/12/20 06:14:01;;;;;;;;;;;;;;;;;;6224404;22;19965;-91
2022/12/20 06:16:27;;;;;;;;;;;;;;;;;;6224139;22;19961;-90
2022/12/20 06:18:53;;;;;;;;;;;;;;;;;;6223938;22;20333;-91
2022/12/20 06:21:19;;;;;;;;;;;;;;;;;;6224191;22;20399;-90
2022/12/20 06:23:44;;;;;;;;;;;;;;;;;;6224137;22;19998;-91
2022/12/20 06:26:10;;;;;;;;;;;;;;;;;;6224420;22;19982;-91
2022/12/20 06:28:41;;;;;;;;;;;;;;;;;;6224427;22;19959;-90
2022/12/20 06:31:07;;;;;;;;;;;;;;;;;;6224014;22;19919;-90
2022/12/20 06:33:33;;;;;;;;;;;;;;;;;;6224156;22;19957;-90
2022/12/20 06:35:59;;;;;;;;;;;;;;;;;;6224376;22;20377;-91
2022/12/20 06:38:25;;;;;;;;;;;;;;;;;;6224392;22;19998;-90
2022/12/20 06:40:51;;;;;;;;;;;;;;;;;;6224102;22;19986;-91
2022/12/20 06:43:16;;;;;;;;;;;;;;;;;;6224282;22;20320;-91
2022/12/20 06:45:42;;;;;;;;;;;;;;;;;;6249599;22;19986;-91
2022/12/20 06:48:08;;;;;;;;;;;;;;;;;;6224628;22;20308;-91
2022/12/20 06:50:34;;;;;;;;;;;;;;;;;;6223951;22;19915;-90
2022/12/20 06:53:00;;;;;;;;;;;;;;;;;;6224237;22;20253;-90
2022/12/20 06:55:26;;;;;;;;;;;;;;;;;;6224049;22;19915;-91
2022/12/20 06:57:52;;;;;;;;;;;;;;;;;;6223846;22;19998;-90
2022/12/20 07:00:18;;;;;;;;;;;;;;;;;;6223643;22;19950;-90
2022/12/20 07:02:44;;;;;;;;;;;;;;;;;;6224366;22;19919;-90
2022/12/20 07:05:10;;;;;;;;;;;;;;;;;;6224148;22;19998;-92
2022/12/20 07:07:36;;;;;;;;;;;;;;;;;;6224236;22;19915;-91
2022/12/20 07:10:02;;;;;;;;;;;;;;;;;;6223726;22;20251;-91
2022/12/20 07:12:28;;;;;;;;;;;;;;;;;;6224354;22;19923;-91
2022/12/20 07:14:53;;;;;;;;;;;;;;;;;;6224227;22;19943;-91
2022/12/20 07:17:19;;;;;;;;;;;;;;;;;;6223158;22;19923;-92
2022/12/20 07:19:46;;;;;;;;;;;;;;;;;;6223713;22;19915;-91
2022/12/20 07:22:12;;;;;;;;;;;;;;;;;;6223986;22;20002;-91
2022/12/20 07:24:38;;;;;;;;;;;;;;;;;;6223796;22;19950;-91
2022/12/20 07:27:04;;;;;;;;;;;;;;;;;;6224069;22;19915;-91
2022/12/20 07:29:30;;;;;;;;;;;;;;;;;;6250944;22;19923;-95
2022/12/20 07:31:56;;;;;;;;;;;;;;;;;;6224346;22;19916;-92
2022/12/20 07:34:22;;;;;;;;;;;;;;;;;;6222668;22;19919;-91
2022/12/20 07:36:49;;;;;;;;;;;;;;;;;;6221667;22;20183;-92
2022/12/20 07:39:15;;;;;;;;;;;;;;;;;;6249287;22;19993;-94
2022/12/20 07:41:41;;;;;;;;;;;;;;;;;;6229513;22;20114;-94
2022/12/20 07:44:06;;;;;;;;;;;;;;;;;;6254718;22;19925;-93
2022/12/20 07:46:32;;;;;;;;;;;;;;;;;;6224633;22;20044;-91
2022/12/20 07:48:58;;;;;;;;;;;;;;;;;;6226389;22;19961;-93
2022/12/20 07:51:28;;;;;;;;;;;;;;;;;;6229643;22;19939;-94
2022/12/20 07:53:54;;;;;;;;;;;;;;;;;;6258363;22;20022;-93
2022/12/20 07:56:20;;;;;;;;;;;;;;;;;;6227183;22;19916;-91
2022/12/20 07:58:46;;;;;;;;;;;;;;;;;;6227608;22;19919;-91
2022/12/20 08:01:12;;;;;;;;;;;;;;;;;;6227056;22;19948;-92
2022/12/20 08:03:38;;;;;;;;;;;;;;;;;;6229172;22;20265;-91
2022/12/20 08:06:04;;;;;;;;;;;;;;;;;;6227727;22;19915;-92
2022/12/20 08:08:30;;;;;;;;;;;;;;;;;;6227778;22;19899;-90
2022/12/20 08:10:56;;;;;;;;;;;;;;;;;;6226356;22;20282;-92
2022/12/20 08:13:22;;;;;;;;;;;;;;;;;;6228305;22;19998;-95
2022/12/20 08:15:48;;;;;;;;;;;;;;;;;;6230865;22;19950;-95
2022/12/20 08:18:15;;;;;;;;;;;;;;;;;;6233004;22;19919;-95
2022/12/20 08:20:40;;;;;;;;;;;;;;;;;;6229532;22;19915;-93
2022/12/20 08:23:06;;;;;;;;;;;;;;;;;;6228225;22;20005;-96
2022/12/20 08:25:32;;;;;;;;;;;;;;;;;;6229146;22;19986;-94
2022/12/20 08:30:34;;;;;;;;;;;;;;;;;;6327811;22;19987;-96
2022/12/20 08:33:00;;;;;;;;;;;;;;;;;;6291224;22;19919;-96
2022/12/20 08:35:26;;;;;;;;;;;;;;;;;;6289573;22;19914;-94
2022/12/20 08:37:52;;;;;;;;;;;;;;;;;;6288411;22;20001;-93
2022/12/20 08:40:18;;;;;;;;;;;;;;;;;;6287812;22;20306;-92
2022/12/20 08:42:44;;;;;;;;;;;;;;;;;;6290021;22;19926;-95
2022/12/20 08:45:09;;;;;;;;;;;;;;;;;;6289758;22;19918;-93
2022/12/20 08:47:35;;;;;;;;;;;;;;;;;;6288836;22;19914;-93
2022/12/20 08:50:02;;;;;;;;;;;;;;;;;;6290268;22;19927;-96
2022/12/20 08:52:27;;;;;;;;;;;;;;;;;;6289104;22;19938;-95
2022/12/20 08:54:53;;;;;;;;;;;;;;;;;;6288935;22;19915;-93
2022/12/20 08:57:19;;;;;;;;;;;;;;;;;;6287782;22;19914;-90
2022/12/20 08:59:45;;;;;;;;;;;;;;;;;;6286419;22;20336;-93
2022/12/20 09:02:11;;;;;;;;;;;;;;;;;;6301506;22;19925;-94
2022/12/20 09:04:37;;;;;;;;;;;;;;;;;;6290057;22;19915;-92
2022/12/20 09:07:03;;;;;;;;;;;;;;;;;;6291618;22;19983;-96
2022/12/20 09:09:29;;;;;;;;;;;;;;;;;;6288858;22;19914;-95
2022/12/20 09:11:56;;;;;;;;;;;;;;;;;;6288656;22;20294;-94
2022/12/20 09:14:22;;;;;;;;;;;;;;;;;;6288402;22;19967;-93
2022/12/20 09:16:48;;;;;;;;;;;;;;;;;;6287796;22;20218;-93
2022/12/20 09:19:14;;;;;;;;;;;;;;;;;;6287635;22;19946;-91
2022/12/20 09:21:39;;;;;;;;;;;;;;;;;;6288117;22;19957;-92
2022/12/20 09:24:05;;;;;;;;;;;;;;;;;;6287935;22;20331;-94
2022/12/20 09:26:33;;;;;;;;;;;;;;;;;;6287887;22;19953;-94
2022/12/20 09:29:00;;;;;;;;;;;;;;;;;;6287658;22;20229;-93
2022/12/20 09:31:26;;;;;;;;;;;;;;;;;;6287742;22;19922;-93
2022/12/20 09:33:52;;;;;;;;;;;;;;;;;;6287678;22;19918;-93
2022/12/20 09:36:18;;;;;;;;;;;;;;;;;;6287485;22;19936;-92
2022/12/20 09:38:44;;;;;;;;;;;;;;;;;;6288974;22;20332;-92
2022/12/20 09:41:10;;;;;;;;;;;;;;;;;;6286836;22;19922;-91
2022/12/20 09:43:36;;;;;;;;;;;;;;;;;;6288366;22;19919;-93
2022/12/20 09:46:02;;;;;;;;;;;;;;;;;;6287253;22;20324;-95
2022/12/20 09:48:28;;;;;;;;;;;;;;;;;;6288062;22;20393;-94
2022/12/20 09:50:54;;;;;;;;;;;;;;;;;;6288275;22;19980;-92
2022/12/20 09:53:20;;;;;;;;;;;;;;;;;;6299226;22;19968;-95
2022/12/20 09:55:49;;;;;;;;;;;;;;;;;;6292663;22;19929;-96
2022/12/20 09:58:15;;;;;;;;;;;;;;;;;;6258465;22;19945;-91
2022/12/20 10:00:41;;;;;;;;;;;;;;;;;;6256620;22;19918;-92
2022/12/20 10:03:07;;;;;;;;;;;;;;;;;;6256273;22;19991;-90
2022/12/20 10:05:33;;;;;;;;;;;;;;;;;;6256822;22;19953;-91
2022/12/20 10:08:00;;;;;;;;;;;;;;;;;;6258411;22;20262;-92
2022/12/20 10:10:26;;;;;;;;;;;;;;;;;;6256714;22;19922;-94
2022/12/20 10:12:52;;;;;;;;;;;;;;;;;;6284414;22;19915;-95
2022/12/20 10:15:18;;;;;;;;;;;;;;;;;;6257026;22;19946;-90
2022/12/20 10:17:44;;;;;;;;;;;;;;;;;;6286691;22;19902;-95
2022/12/20 10:20:10;;;;;;;;;;;;;;;;;;6258561;22;19919;-94
2022/12/20 10:22:36;;;;;;;;;;;;;;;;;;6259324;22;19965;-94
2022/12/20 10:25:02;;;;;;;;;;;;;;;;;;6259211;22;19942;-94
2022/12/20 10:27:28;;;;;;;;;;;;;;;;;;6257699;22;20311;-91
2022/12/20 10:29:54;;;;;;;;;;;;;;;;;;6258098;22;19915;-91
2022/12/20 10:32:20;;;;;;;;;;;;;;;;;;6258195;22;19926;-94
2022/12/20 10:34:46;;;;;;;;;;;;;;;;;;6257637;22;19919;-93
2022/12/20 10:37:12;;;;;;;;;;;;;;;;;;6258120;22;19915;-92
2022/12/20 10:39:37;;;;;;;;;;;;;;;;;;6257384;22;19989;-92
2022/12/20 10:42:03;;;;;;;;;;;;;;;;;;6256925;22;19984;-93
2022/12/20 10:44:29;;;;;;;;;;;;;;;;;;6257181;22;19926;-93
2022/12/20 10:46:55;;;;;;;;;;;;;;;;;;6257421;22;19915;-92
2022/12/20 10:49:22;;;;;;;;;;;;;;;;;;6257144;22;19915;-92
2022/12/20 10:51:48;;;;;;;;;;;;;;;;;;6257141;22;19993;-89
2022/12/20 10:54:13;;;;;;;;;;;;;;;;;;6257153;22;19942;-95
2022/12/20 10:56:39;;;;;;;;;;;;;;;;;;6256056;22;20332;-91
2022/12/20 10:59:07;;;;;;;;;;;;;;;;;;6255442;22;19915;-91
2022/12/20 11:01:33;;;;;;;;;;;;;;;;;;6255971;22;19925;-92
2022/12/20 11:03:59;;;;;;;;;;;;;;;;;;6256063;22;20264;-93
2022/12/20 11:06:24;;;;;;;;;;;;;;;;;;6256167;22;19921;-95
2022/12/20 11:08:50;;;;;;;;;;;;;;;;;;6256043;22;19919;-91
2022/12/20 11:11:17;;;;;;;;;;;;;;;;;;6256586;22;19914;-94
2022/12/20 11:13:43;;;;;;;;;;;;;;;;;;6256204;22;20352;-91
2022/12/20 11:16:09;;;;;;;;;;;;;;;;;;6256087;22;19918;-93
2022/12/20 11:18:35;;;;;;;;;;;;;;;;;;6255976;22;20337;-92
2022/12/20 11:21:03;;;;;;;;;;;;;;;;;;6255968;22;19922;-93
2022/12/20 11:23:29;;;;;;;;;;;;;;;;;;6255851;22;19998;-93
2022/12/20 11:25:54;;;;;;;;;;;;;;;;;;6281497;22;19965;-90
2022/12/20 11:28:20;;;;;;;;;;;;;;;;;;6255987;22;19915;-92
2022/12/20 11:30:46;;;;;;;;;;;;;;;;;;6256500;22;20286;-93
2022/12/20 11:33:12;;;;;;;;;;;;;;;;;;6257046;22;19968;-94
2022/12/20 11:35:39;;;;;;;;;;;;;;;;;;6256808;22;20032;-94
2022/12/20 11:38:05;;;;;;;;;;;;;;;;;;6256095;22;20295;-92
2022/12/20 11:40:31;;;;;;;;;;;;;;;;;;6255673;22;19915;-91
2022/12/20 11:42:57;;;;;;;;;;;;;;;;;;6255777;22;19953;-94
2022/12/20 11:45:23;;;;;;;;;;;;;;;;;;6255810;22;20223;-93
2022/12/20 11:47:49;;;;;;;;;;;;;;;;;;6254810;22;19915;-91
2022/12/20 11:50:14;;;;;;;;;;;;;;;;;;6254862;22;19915;-93
2022/12/20 11:52:40;;;;;;;;;;;;;;;;;;6255816;22;19982;-93
2022/12/20 11:55:06;;;;;;;;;;;;;;;;;;6254760;22;19986;-92
2022/12/20 11:57:32;;;;;;;;;;;;;;;;;;6254583;22;19925;-93
2022/12/20 11:59:58;;;;;;;;;;;;;;;;;;6255714;22;19985;-92
2022/12/20 12:02:24;;;;;;;;;;;;;;;;;;6255635;22;19998;-93
2022/12/20 12:04:50;;;;;;;;;;;;;;;;;;6255646;22;19998;-93
2022/12/20 12:07:16;;;;;;;;;;;;;;;;;;6256016;22;20361;-94
2022/12/20 12:09:42;;;;;;;;;;;;;;;;;;6256032;22;20359;-89
2022/12/20 12:12:08;;;;;;;;;;;;;;;;;;6255262;22;19915;-90
2022/12/20 12:14:33;;;;;;;;;;;;;;;;;;6255710;22;19949;-91
2022/12/20 12:16:59;;;;;;;;;;;;;;;;;;6256473;22;19989;-94
2022/12/20 12:19:25;;;;;;;;;;;;;;;;;;6257251;22;19990;-93
2022/12/20 12:21:51;;;;;;;;;;;;;;;;;;6256814;22;20048;-93
2022/12/20 12:24:20;;;;;;;;;;;;;;;;;;6256917;22;19902;-95
2022/12/20 12:26:46;;;;;;;;;;;;;;;;;;6288293;22;19922;-96
2022/12/20 12:29:12;;;;;;;;;;;;;;;;;;6257451;22;19915;-89
2022/12/20 12:31:38;;;;;;;;;;;;;;;;;;6256287;22;19914;-90
2022/12/20 12:34:04;;;;;;;;;;;;;;;;;;6257969;22;19915;-93
2022/12/20 12:36:30;;;;;;;;;;;;;;;;;;6258589;22;19919;-94
2022/12/20 12:38:56;;;;;;;;;;;;;;;;;;6258511;22;19922;-95
2022/12/20 12:41:22;;;;;;;;;;;;;;;;;;6258588;22;19919;-90
2022/12/20 12:43:47;;;;;;;;;;;;;;;;;;6258237;22;20388;-90
2022/12/20 12:46:15;;;;;;;;;;;;;;;;;;6258321;22;19922;-91
2022/12/20 12:48:41;;;;;;;;;;;;;;;;;;6258435;22;19915;-91
2022/12/20 12:51:07;;;;;;;;;;;;;;;;;;6257050;22;20355;-93
2022/12/20 12:53:32;;;;;;;;;;;;;;;;;;6256825;22;19915;-91
2022/12/20 12:55:58;;;;;;;;;;;;;;;;;;6256513;22;19921;-91
2022/12/20 12:58:24;;;;;;;;;;;;;;;;;;6257256;22;19915;-91
2022/12/20 13:00:50;;;;;;;;;;;;;;;;;;6255487;22;20226;-93
2022/12/20 13:03:16;;;;;;;;;;;;;;;;;;6257336;22;20287;-90
2022/12/20 13:05:42;;;;;;;;;;;;;;;;;;6258040;22;19927;-93
2022/12/20 13:08:08;;;;;;;;;;;;;;;;;;6258188;22;19918;-93
2022/12/20 13:10:34;;;;;;;;;;;;;;;;;;6257771;22;20000;-91
2022/12/20 13:13:00;;;;;;;;;;;;;;;;;;6257152;22;19946;-94
2022/12/20 13:15:27;;;;;;;;;;;;;;;;;;6258215;22;19941;-91
2022/12/20 13:17:53;;;;;;;;;;;;;;;;;;6284256;22;19985;-94
2022/12/20 13:20:19;;;;;;;;;;;;;;;;;;6260831;22;19915;-95
2022/12/20 13:22:45;;;;;;;;;;;;;;;;;;6293960;22;19926;-94
2022/12/20 13:25:11;;;;;;;;;;;;;;;;;;6266214;22;19918;-95
2022/12/20 13:27:40;;;;;;;;;;;;;;;;;;6265055;22;19922;-96
2022/12/20 13:30:10;;;;;;;;;;;;;;;;;;6284666;22;19919;-90
2022/12/20 13:32:36;;;;;;;;;;;;;;;;;;6256482;22;19922;-92
2022/12/20 13:35:02;;;;;;;;;;;;;;;;;;6257095;22;19914;-93
2022/12/20 13:37:35;;;;;;;;;;;;;;;;;;6257885;22;20329;-94
2022/12/20 13:40:01;;;;;;;;;;;;;;;;;;6256323;22;20442;-94
2022/12/20 13:42:27;;;;;;;;;;;;;;;;;;6256719;22;19919;-92
2022/12/20 13:44:53;;;;;;;;;;;;;;;;;;6255884;22;19914;-92
2022/12/20 13:47:19;;;;;;;;;;;;;;;;;;6256714;22;20352;-89
2022/12/20 13:49:45;;;;;;;;;;;;;;;;;;6257348;22;20337;-92
2022/12/20 13:52:11;;;;;;;;;;;;;;;;;;6256719;22;19902;-90
2022/12/20 13:54:37;;;;;;;;;;;;;;;;;;6256317;22;19915;-92
2022/12/20 13:57:03;;;;;;;;;;;;;;;;;;6256413;22;19914;-91
2022/12/20 13:59:29;;;;;;;;;;;;;;;;;;6254846;22;20356;-90
2022/12/20 14:01:55;;;;;;;;;;;;;;;;;;6255616;22;19919;-92
2022/12/20 14:04:20;;;;;;;;;;;;;;;;;;6256121;22;19921;-91
2022/12/20 14:06:46;;;;;;;;;;;;;;;;;;6256732;22;19922;-91
2022/12/20 14:09:12;;;;;;;;;;;;;;;;;;6255855;22;20252;-92
2022/12/20 14:11:42;;;;;;;;;;;;;;;;;;6256188;22;19922;-92
2022/12/20 14:14:08;;;;;;;;;;;;;;;;;;6256175;22;19915;-93
2022/12/20 14:16:34;;;;;;;;;;;;;;;;;;6256627;22;19915;-92
2022/12/20 14:18:59;;;;;;;;;;;;;;;;;;6256284;22;19919;-91
2022/12/20 14:21:30;;;;;;;;;;;;;;;;;;6257211;22;19921;-91
2022/12/20 14:23:56;;;;;;;;;;;;;;;;;;6257413;22;19915;-91
2022/12/20 14:26:22;;;;;;;;;;;;;;;;;;6257377;22;19919;-91
2022/12/20 14:28:48;;;;;;;;;;;;;;;;;;6257098;22;19915;-91
2022/12/20 14:31:14;;;;;;;;;;;;;;;;;;6282744;22;19934;-90
2022/12/20 14:33:40;;;;;;;;;;;;;;;;;;6257336;22;20447;-91
2022/12/20 14:36:06;;;;;;;;;;;;;;;;;;6257347;22;19903;-91
2022/12/20 14:38:32;;;;;;;;;;;;;;;;;;6257236;22;19915;-91
2022/12/20 14:40:58;;;;;;;;;;;;;;;;;;6257141;22;19929;-92
2022/12/20 14:43:24;;;;;;;;;;;;;;;;;;6256022;22;19919;-92
2022/12/20 14:45:49;;;;;;;;;;;;;;;;;;6257302;22;19923;-91
2022/12/20 14:48:16;;;;;;;;;;;;;;;;;;6256697;22;19915;-91
2022/12/20 14:50:42;;;;;;;;;;;;;;;;;;6256853;22;19942;-91
2022/12/20 14:53:08;;;;;;;;;;;;;;;;;;6282396;22;19914;-91
2022/12/20 14:55:35;;;;;;;;;;;;;;;;;;6257048;22;19921;-91
2022/12/20 14:58:01;;;;;;;;;;;;;;;;;;6257248;22;19922;-91
2022/12/20 15:00:44;;;;;;;;;;;;;;;;;;6256793;22;19914;-91
2022/12/20 15:03:11;;;;;;;;;;;;;;;;;;6256939;22;19929;-91
2022/12/20 15:05:37;;;;;;;;;;;;;;;;;;6257175;22;19919;-91
2022/12/20 15:08:03;;;;;;;;;;;;;;;;;;6256920;22;19921;-92
2022/12/20 15:10:29;;;;;;;;;;;;;;;;;;6256839;22;20555;-92
2022/12/20 15:12:55;;;;;;;;;;;;;;;;;;6257117;22;19950;-91
2022/12/20 15:15:21;;;;;;;;;;;;;;;;;;6256641;22;19915;-91
2022/12/20 15:17:46;;;;;;;;;;;;;;;;;;6256909;22;20225;-91
2022/12/20 15:20:12;;;;;;;;;;;;;;;;;;6256570;22;19915;-92
2022/12/20 15:22:38;;;;;;;;;;;;;;;;;;6257001;22;19903;-91
2022/12/20 15:25:04;;;;;;;;;;;;;;;;;;6256712;22;20261;-92
2022/12/20 15:27:32;;;;;;;;;;;;;;;;;;6256908;22;19918;-92
2022/12/20 15:29:59;;;;;;;;;;;;;;;;;;6255818;22;19915;-91
2022/12/20 15:32:28;;;;;;;;;;;;;;;;;;6256605;22;19919;-92
2022/12/20 15:34:54;;;;;;;;;;;;;;;;;;6256756;22;20261;-92
2022/12/20 15:37:20;;;;;;;;;;;;;;;;;;6257102;22;19919;-92
2022/12/20 15:39:46;;;;;;;;;;;;;;;;;;6256822;22;19915;-91
2022/12/20 15:42:12;;;;;;;;;;;;;;;;;;6282355;22;19926;-91
2022/12/20 15:44:38;;;;;;;;;;;;;;;;;;6256834;22;20356;-92
2022/12/20 15:47:04;;;;;;;;;;;;;;;;;;6256932;22;19922;-92
2022/12/20 15:49:30;;;;;;;;;;;;;;;;;;6256758;22;19921;-92
2022/12/20 15:51:56;;;;;;;;;;;;;;;;;;6255928;22;19915;-92
2022/12/20 15:54:23;;;;;;;;;;;;;;;;;;6255656;22;20359;-92
2022/12/20 15:56:48;;;;;;;;;;;;;;;;;;6255619;22;19986;-92
2022/12/20 15:59:14;;;;;;;;;;;;;;;;;;6255443;22;19955;-91
2022/12/20 16:01:40;;;;;;;;;;;;;;;;;;6255601;22;19950;-91
2022/12/20 16:04:06;;;;;;;;;;;;;;;;;;6255725;22;19947;-92
2022/12/20 16:06:32;;;;;;;;;;;;;;;;;;6257799;22;19915;-91
2022/12/20 16:08:58;;;;;;;;;;;;;;;;;;6257351;22;19922;-92
2022/12/20 16:11:26;;;;;;;;;;;;;;;;;;6257492;22;19922;-93
2022/12/20 16:13:52;;;;;;;;;;;;;;;;;;6283039;22;19986;-91
2022/12/20 16:16:18;;;;;;;;;;;;;;;;;;6283169;22;20353;-92
2022/12/20 16:18:44;;;;;;;;;;;;;;;;;;6257335;22;19929;-92
2022/12/20 16:21:15;;;;;;;;;;;;;;;;;;6257436;22;19923;-92
2022/12/20 16:23:41;;;;;;;;;;;;;;;;;;6257507;22;19923;-92
2022/12/20 16:26:07;;;;;;;;;;;;;;;;;;6257440;22;19964;-91
2022/12/20 16:28:33;;;;;;;;;;;;;;;;;;6257604;22;20376;-91
2022/12/20 16:30:59;;;;;;;;;;;;;;;;;;6257081;22;19915;-91
2022/12/20 16:33:26;;;;;;;;;;;;;;;;;;6257703;22;19940;-92
2022/12/20 16:35:52;;;;;;;;;;;;;;;;;;6257371;22;19915;-94
2022/12/20 16:38:17;;;;;;;;;;;;;;;;;;6257368;22;20375;-94
2022/12/20 16:40:43;;;;;;;;;;;;;;;;;;6257130;22;19957;-94
2022/12/20 16:43:09;;;;;;;;;;;;;;;;;;6257194;22;19969;-93
2022/12/20 16:45:35;;;;;;;;;;;;;;;;;;6257492;22;19985;-93
2022/12/20 16:48:01;;;;;;;;;;;;;;;;;;6282704;22;19946;-94
2022/12/20 16:50:27;;;;;;;;;;;;;;;;;;6256866;22;20312;-95